sensor_id;sensor_type;location;lat;lon;timestamp;pressure;altitude;pressure_sealevel;temperature;humidity
62152;BME280;48139;47.474;19.034;2024-01-30T04:39:08;102803.84;;;-1.46;100.00
62152;BME280;48139;47.474;19.034;2024-01-30T04:42:11;102803.84;;;-1.46;100.00
62152;BME280;48139;47.474;19.034;2024-01-30T04:45:14;102806.72;;;-1.99;100.00
62152;BME280;48139;47.474;19.034;2024-01-30T04:48:17;102810.97;;;-1.81;100.00
62152;BME280;48139;47.474;19.034;2024-01-30T04:51:19;102807.97;;;-1.71;100.00
62152;BME280;48139;47.474;19.034;2024-01-30T04:54:22;102815.03;;;-1.86;100.00
62152;BME280;48139;47.474;19.034;2024-01-30T04:57:25;102814.28;;;-1.83;100.00
62152;BME280;48139;47.474;19.034;2024-01-30T05:00:28;102805.09;;;-1.78;100.00
62152;BME280;48139;47.474;19.034;2024-01-30T05:03:33;102815.34;;;-1.78;100.00
62152;BME280;48139;47.474;19.034;2024-01-30T05:06:37;102819.16;;;-1.89;100.00
62152;BME280;48139;47.474;19.034;2024-01-30T05:09:39;102820.25;;;-1.84;100.00
62152;BME280;48139;47.474;19.034;2024-01-30T05:12:42;102820.25;;;-1.84;100.00
62152;BME280;48139;47.474;19.034;2024-01-30T05:15:45;102828.19;;;-1.78;100.00
62152;BME280;48139;47.474;19.034;2024-01-30T05:18:48;102831.81;;;-1.94;100.00
62152;BME280;48139;47.474;19.034;2024-01-30T05:21:50;102833.06;;;-1.84;100.00
62152;BME280;48139;47.474;19.034;2024-01-30T05:24:54;102837.47;;;-1.82;100.00
62152;BME280;48139;47.474;19.034;2024-01-30T05:27:56;102837.94;;;-1.90;100.00
62152;BME280;48139;47.474;19.034;2024-01-30T05:30:59;102847.06;;;-1.97;100.00
62152;BME280;48139;47.474;19.034;2024-01-30T05:34:02;102842.94;;;-1.93;100.00
62152;BME280;48139;47.474;19.034;2024-01-30T05:37:05;102849.72;;;-1.95;100.00
62152;BME280;48139;47.474;19.034;2024-01-30T05:40:09;102854.25;;;-1.90;100.00
62152;BME280;48139;47.474;19.034;2024-01-30T05:43:12;102851.94;;;-1.84;100.00
62152;BME280;48139;47.474;19.034;2024-01-30T05:46:15;102845.44;;;-1.76;100.00
62152;BME280;48139;47.474;19.034;2024-01-30T05:49:18;102856.66;;;-1.74;100.00
62152;BME280;48139;47.474;19.034;2024-01-30T05:52:20;102856.81;;;-1.90;100.00
62152;BME280;48139;47.474;19.034;2024-01-30T05:55:23;102851.31;;;-1.78;100.00
62152;BME280;48139;47.474;19.034;2024-01-30T05:58:26;102846.06;;;-1.81;100.00
62152;BME280;48139;47.474;19.034;2024-01-30T06:01:29;102851.50;;;-1.74;100.00
62152;BME280;48139;47.474;19.034;2024-01-30T06:04:32;102852.75;;;-1.45;100.00
62152;BME280;48139;47.474;19.034;2024-01-30T06:07:34;102846.84;;;-1.42;100.00
62152;BME280;48139;47.474;19.034;2024-01-30T06:10:39;102846.19;;;-1.38;100.00
62152;BME280;48139;47.474;19.034;2024-01-30T06:13:42;102850.31;;;-1.21;100.00
62152;BME280;48139;47.474;19.034;2024-01-30T06:16:45;102856.09;;;-1.27;100.00
62152;BME280;48139;47.474;19.034;2024-01-30T06:19:48;102854.81;;;-1.15;100.00
62152;BME280;48139;47.474;19.034;2024-01-30T06:22:51;102850.50;;;-1.16;100.00
62152;BME280;48139;47.474;19.034;2024-01-30T06:25:53;102855.31;;;-1.03;100.00
62152;BME280;48139;47.474;19.034;2024-01-30T06:28:56;102854.38;;;-1.05;100.00
62152;BME280;48139;47.474;19.034;2024-01-30T06:31:59;102859.28;;;-1.11;100.00
62152;BME280;48139;47.474;19.034;2024-01-30T06:35:02;102858.72;;;-1.04;100.00
62152;BME280;48139;47.474;19.034;2024-01-30T06:38:05;102858.88;;;-1.00;100.00
62152;BME280;48139;47.474;19.034;2024-01-30T06:41:08;102864.72;;;-0.83;100.00
62152;BME280;48139;47.474;19.034;2024-01-30T06:44:10;102865.22;;;-0.92;100.00
62152;BME280;48139;47.474;19.034;2024-01-30T06:47:13;102861.69;;;-0.94;100.00
62152;BME280;48139;47.474;19.034;2024-01-30T06:50:15;102864.72;;;-0.83;100.00
62152;BME280;48139;47.474;19.034;2024-01-30T06:53:18;102859.56;;;-0.83;100.00
62152;BME280;48139;47.474;19.034;2024-01-30T06:56:21;102859.31;;;-0.89;100.00
62152;BME280;48139;47.474;19.034;2024-01-30T06:59:24;102858.78;;;-0.81;100.00
62152;BME280;48139;47.474;19.034;2024-01-30T07:02:27;102867.88;;;-0.68;100.00
62152;BME280;48139;47.474;19.034;2024-01-30T07:05:30;102867.81;;;-0.47;100.00
62152;BME280;48139;47.474;19.034;2024-01-30T07:08:32;102874.84;;;-0.21;100.00
62152;BME280;48139;47.474;19.034;2024-01-30T07:11:35;102861.03;;;-0.23;100.00
62152;BME280;48139;47.474;19.034;2024-01-30T07:14:38;102863.81;;;-0.17;100.00
62152;BME280;48139;47.474;19.034;2024-01-30T07:17:41;102869.25;;;-0.09;100.00
62152;BME280;48139;47.474;19.034;2024-01-30T07:20:43;102865.38;;;0.02;100.00
62152;BME280;48139;47.474;19.034;2024-01-30T07:23:49;102868.81;;;0.03;100.00
62152;BME280;48139;47.474;19.034;2024-01-30T07:26:52;102872.84;;;0.18;100.00
62152;BME280;48139;47.474;19.034;2024-01-30T07:29:55;102870.34;;;0.21;100.00
62152;BME280;48139;47.474;19.034;2024-01-30T07:32:58;102874.78;;;0.25;100.00
62152;BME280;48139;47.474;19.034;2024-01-30T07:36:01;102867.28;;;0.08;100.00
62152;BME280;48139;47.474;19.034;2024-01-30T07:39:04;102867.34;;;0.09;100.00
62152;BME280;48139;47.474;19.034;2024-01-30T07:42:07;102863.84;;;0.31;100.00
62152;BME280;48139;47.474;19.034;2024-01-30T07:45:10;102859.03;;;0.42;100.00
62152;BME280;48139;47.474;19.034;2024-01-30T07:48:12;102855.25;;;0.56;100.00
62152;BME280;48139;47.474;19.034;2024-01-30T07:51:16;102863.94;;;0.59;100.00
62152;BME280;48139;47.474;19.034;2024-01-30T07:54:19;102856.87;;;0.79;100.00
62152;BME280;48139;47.474;19.034;2024-01-30T07:57:21;102853.87;;;0.92;100.00
62152;BME280;48139;47.474;19.034;2024-01-30T08:00:24;102853.72;;;1.14;100.00
62152;BME280;48139;47.474;19.034;2024-01-30T08:03:27;102859.69;;;1.13;100.00
62152;BME280;48139;47.474;19.034;2024-01-30T08:06:30;102853.13;;;1.23;100.00
62152;BME280;48139;47.474;19.034;2024-01-30T08:09:33;102854.91;;;1.24;100.00
62152;BME280;48139;47.474;19.034;2024-01-30T08:12:35;102855.66;;;1.21;100.00
62152;BME280;48139;47.474;19.034;2024-01-30T08:15:38;102855.72;;;1.51;100.00
62152;BME280;48139;47.474;19.034;2024-01-30T08:18:41;102862.66;;;2.12;100.00
62152;BME280;48139;47.474;19.034;2024-01-30T08:21:43;102855.38;;;2.63;100.00
62152;BME280;48139;47.474;19.034;2024-01-30T08:24:46;102849.56;;;2.72;100.00
62152;BME280;48139;47.474;19.034;2024-01-30T08:27:49;102859.97;;;2.73;100.00
62152;BME280;48139;47.474;19.034;2024-01-30T08:30:52;102860.78;;;3.07;100.00
62152;BME280;48139;47.474;19.034;2024-01-30T08:33:55;102864.09;;;3.39;100.00
62152;BME280;48139;47.474;19.034;2024-01-30T08:36:58;102875.59;;;3.50;100.00
62152;BME280;48139;47.474;19.034;2024-01-30T08:40:01;102864.81;;;3.71;100.00
62152;BME280;48139;47.474;19.034;2024-01-30T08:43:06;102865.44;;;4.01;100.00
62152;BME280;48139;47.474;19.034;2024-01-30T08:46:08;102879.06;;;4.34;100.00
62152;BME280;48139;47.474;19.034;2024-01-30T08:49:11;102866.16;;;4.37;100.00
62152;BME280;48139;47.474;19.034;2024-01-30T08:52:16;102873.63;;;4.69;100.00
62152;BME280;48139;47.474;19.034;2024-01-30T08:55:18;102873.09;;;4.86;100.00
62152;BME280;48139;47.474;19.034;2024-01-30T08:58:21;102874.75;;;5.39;100.00
62152;BME280;48139;47.474;19.034;2024-01-30T09:01:25;102866.38;;;5.58;100.00
62152;BME280;48139;47.474;19.034;2024-01-30T09:04:28;102867.91;;;5.42;100.00
62152;BME280;48139;47.474;19.034;2024-01-30T09:07:31;102866.09;;;4.82;100.00
62152;BME280;48139;47.474;19.034;2024-01-30T09:10:34;102861.78;;;4.84;100.00
62152;BME280;48139;47.474;19.034;2024-01-30T09:13:37;102862.59;;;4.31;100.00
62152;BME280;48139;47.474;19.034;2024-01-30T09:16:41;102857.94;;;4.15;100.00
62152;BME280;48139;47.474;19.034;2024-01-30T09:19:43;102857.75;;;4.04;100.00
62152;BME280;48139;47.474;19.034;2024-01-30T09:22:47;102855.81;;;3.95;100.00
62152;BME280;48139;47.474;19.034;2024-01-30T09:25:50;102861.56;;;3.40;100.00
62152;BME280;48139;47.474;19.034;2024-01-30T09:28:52;102863.59;;;3.16;100.00
62152;BME280;48139;47.474;19.034;2024-01-30T09:31:55;102861.56;;;3.40;100.00
62152;BME280;48139;47.474;19.034;2024-01-30T09:34:58;102850.63;;;3.53;100.00
62152;BME280;48139;47.474;19.034;2024-01-30T09:38:00;102850.25;;;3.77;100.00
62152;BME280;48139;47.474;19.034;2024-01-30T09:41:08;102857.56;;;3.54;100.00
62152;BME280;48139;47.474;19.034;2024-01-30T09:44:11;102850.37;;;3.83;100.00
62152;BME280;48139;47.474;19.034;2024-01-30T09:47:16;102850.44;;;3.85;100.00
62152;BME280;48139;47.474;19.034;2024-01-30T09:50:19;102849.59;;;3.86;100.00
62152;BME280;48139;47.474;19.034;2024-01-30T09:53:23;102852.44;;;3.98;100.00
62152;BME280;48139;47.474;19.034;2024-01-30T09:56:25;102849.84;;;3.98;100.00
62152;BME280;48139;47.474;19.034;2024-01-30T09:59:28;102849.69;;;3.90;100.00
62152;BME280;48139;47.474;19.034;2024-01-30T10:02:32;102861.22;;;4.04;100.00
62152;BME280;48139;47.474;19.034;2024-01-30T10:05:35;102860.25;;;4.46;100.00
62152;BME280;48139;47.474;19.034;2024-01-30T10:08:39;102853.09;;;4.82;100.00
62152;BME280;48139;47.474;19.034;2024-01-30T10:11:42;102858.28;;;4.82;100.00
62152;BME280;48139;47.474;19.034;2024-01-30T10:14:45;102859.34;;;4.94;100.00
62152;BME280;48139;47.474;19.034;2024-01-30T10:17:47;102856.16;;;5.10;100.00
62152;BME280;48139;47.474;19.034;2024-01-30T10:20:51;102852.97;;;5.29;100.00
62152;BME280;48139;47.474;19.034;2024-01-30T10:23:54;102856.56;;;5.39;100.00
62152;BME280;48139;47.474;19.034;2024-01-30T10:26:56;102852.03;;;5.24;100.00
62152;BME280;48139;47.474;19.034;2024-01-30T10:30:00;102848.72;;;5.34;100.00
62152;BME280;48139;47.474;19.034;2024-01-30T10:33:03;102841.81;;;5.36;100.00
62152;BME280;48139;47.474;19.034;2024-01-30T10:36:07;102833.97;;;5.33;100.00
62152;BME280;48139;47.474;19.034;2024-01-30T10:39:11;102842.63;;;5.34;100.00
62152;BME280;48139;47.474;19.034;2024-01-30T10:42:18;102838.41;;;5.40;100.00
62152;BME280;48139;47.474;19.034;2024-01-30T10:45:22;102829.56;;;5.27;100.00
62152;BME280;48139;47.474;19.034;2024-01-30T10:48:30;102828.66;;;5.24;100.00
62152;BME280;48139;47.474;19.034;2024-01-30T10:51:36;102816.63;;;5.31;100.00
62152;BME280;48139;47.474;19.034;2024-01-30T10:54:43;102811.97;;;5.10;100.00
62152;BME280;48139;47.474;19.034;2024-01-30T10:57:46;102802.06;;;5.43;100.00
62152;BME280;48139;47.474;19.034;2024-01-30T11:00:50;102795.75;;;5.24;100.00
62152;BME280;48139;47.474;19.034;2024-01-30T11:03:54;102793.66;;;5.01;100.00
62152;BME280;48139;47.474;19.034;2024-01-30T11:06:59;102793.59;;;4.96;100.00
62152;BME280;48139;47.474;19.034;2024-01-30T11:10:03;102792.97;;;5.14;100.00
62152;BME280;48139;47.474;19.034;2024-01-30T11:13:13;102798.59;;;5.44;100.00
62152;BME280;48139;47.474;19.034;2024-01-30T11:16:16;102802.06;;;5.45;100.00
62152;BME280;48139;47.474;19.034;2024-01-30T11:19:26;102782.31;;;5.59;100.00
62152;BME280;48139;47.474;19.034;2024-01-30T11:22:30;102782.31;;;5.59;100.00
62152;BME280;48139;47.474;19.034;2024-01-30T11:25:34;102781.50;;;5.63;100.00
62152;BME280;48139;47.474;19.034;2024-01-30T11:28:37;102767.41;;;5.43;100.00
62152;BME280;48139;47.474;19.034;2024-01-30T11:31:51;102770.47;;;5.14;100.00
62152;BME280;48139;47.474;19.034;2024-01-30T11:34:54;102768.87;;;5.24;100.00
62152;BME280;48139;47.474;19.034;2024-01-30T11:37:58;102772.34;;;5.23;100.00
62152;BME280;48139;47.474;19.034;2024-01-30T11:41:01;102770.59;;;5.22;100.00
62152;BME280;48139;47.474;19.034;2024-01-30T11:44:05;102771.66;;;5.36;100.00
62152;BME280;48139;47.474;19.034;2024-01-30T11:47:08;102762.09;;;5.35;100.00
62152;BME280;48139;47.474;19.034;2024-01-30T11:50:12;102756.16;;;5.45;100.00
62152;BME280;48139;47.474;19.034;2024-01-30T11:53:16;102755.22;;;5.40;100.00
62152;BME280;48139;47.474;19.034;2024-01-30T11:56:19;102752.84;;;5.55;100.00
62152;BME280;48139;47.474;19.034;2024-01-30T11:59:21;102747.69;;;5.61;100.00
62152;BME280;48139;47.474;19.034;2024-01-30T12:02:24;102740.75;;;5.60;100.00
62152;BME280;48139;47.474;19.034;2024-01-30T12:05:27;102739.84;;;5.58;100.00
62152;BME280;48139;47.474;19.034;2024-01-30T12:08:30;102728.03;;;6.94;100.00
62152;BME280;48139;47.474;19.034;2024-01-30T12:11:43;102725.78;;;6.20;100.00
62152;BME280;48139;47.474;19.034;2024-01-30T12:14:46;102717.53;;;5.79;100.00
62152;BME280;48139;47.474;19.034;2024-01-30T12:17:49;102713.69;;;5.45;100.00
62152;BME280;48139;47.474;19.034;2024-01-30T12:21:01;102707.72;;;5.52;100.00
62152;BME280;48139;47.474;19.034;2024-01-30T12:24:04;102709.50;;;5.56;100.00
62152;BME280;48139;47.474;19.034;2024-01-30T12:27:09;102701.63;;;5.48;100.00
62152;BME280;48139;47.474;19.034;2024-01-30T12:30:13;102704.34;;;5.59;100.00
62152;BME280;48139;47.474;19.034;2024-01-30T12:33:17;102701.91;;;5.74;100.00
62152;BME280;48139;47.474;19.034;2024-01-30T12:36:25;102700.16;;;5.76;100.00
62152;BME280;48139;47.474;19.034;2024-01-30T12:39:29;102696.91;;;5.92;100.00
62152;BME280;48139;47.474;19.034;2024-01-30T12:42:32;102703.00;;;5.96;100.00
62152;BME280;48139;47.474;19.034;2024-01-30T12:45:36;102690.81;;;5.90;100.00
62152;BME280;48139;47.474;19.034;2024-01-30T12:48:39;102687.25;;;5.84;100.00
62152;BME280;48139;47.474;19.034;2024-01-30T12:51:41;102683.75;;;5.79;100.00
62152;BME280;48139;47.474;19.034;2024-01-30T12:54:44;102690.53;;;5.64;100.00
62152;BME280;48139;47.474;19.034;2024-01-30T12:57:47;102686.88;;;5.47;100.00
62152;BME280;48139;47.474;19.034;2024-01-30T13:00:50;102679.16;;;5.55;99.48
62152;BME280;48139;47.474;19.034;2024-01-30T13:03:53;102685.25;;;5.55;99.48
62152;BME280;48139;47.474;19.034;2024-01-30T13:06:56;102669.81;;;5.72;98.90
62152;BME280;48139;47.474;19.034;2024-01-30T13:10:01;102675.03;;;5.75;97.48
62152;BME280;48139;47.474;19.034;2024-01-30T13:13:06;102663.91;;;5.88;96.37
62152;BME280;48139;47.474;19.034;2024-01-30T13:16:18;102662.28;;;6.01;95.05
62152;BME280;48139;47.474;19.034;2024-01-30T13:19:21;102654.44;;;5.96;91.45
62152;BME280;48139;47.474;19.034;2024-01-30T13:22:24;102658.59;;;5.79;92.31
62152;BME280;48139;47.474;19.034;2024-01-30T13:25:27;102656.16;;;5.93;93.00
62152;BME280;48139;47.474;19.034;2024-01-30T13:28:30;102651.00;;;6.00;89.94
62152;BME280;48139;47.474;19.034;2024-01-30T13:31:33;102656.22;;;6.02;87.26
62152;BME280;48139;47.474;19.034;2024-01-30T13:34:37;102661.38;;;5.93;88.44
62152;BME280;48139;47.474;19.034;2024-01-30T13:37:40;102656.94;;;5.86;89.52
62152;BME280;48139;47.474;19.034;2024-01-30T13:40:44;102666.56;;;5.91;87.54
62152;BME280;48139;47.474;19.034;2024-01-30T13:43:49;102662.84;;;5.69;90.17
62152;BME280;48139;47.474;19.034;2024-01-30T13:46:51;102661.97;;;5.71;91.54
62152;BME280;48139;47.474;19.034;2024-01-30T13:49:54;102661.19;;;5.75;92.18
62152;BME280;48139;47.474;19.034;2024-01-30T13:52:57;102650.84;;;5.81;89.17
62152;BME280;48139;47.474;19.034;2024-01-30T13:56:00;102644.75;;;5.82;87.06
62152;BME280;48139;47.474;19.034;2024-01-30T13:59:03;102647.44;;;5.88;82.44
62152;BME280;48139;47.474;19.034;2024-01-30T14:02:08;102653.41;;;5.79;81.65
62152;BME280;48139;47.474;19.034;2024-01-30T14:05:12;102649.12;;;5.84;80.85
62152;BME280;48139;47.474;19.034;2024-01-30T14:08:17;102643.81;;;5.74;80.24
62152;BME280;48139;47.474;19.034;2024-01-30T14:11:20;102644.63;;;5.69;80.07
62152;BME280;48139;47.474;19.034;2024-01-30T14:14:23;102639.44;;;5.71;81.04
62152;BME280;48139;47.474;19.034;2024-01-30T14:17:26;102645.59;;;5.79;80.65
62152;BME280;48139;47.474;19.034;2024-01-30T14:20:28;102646.50;;;5.84;82.17
62152;BME280;48139;47.474;19.034;2024-01-30T14:23:33;102641.22;;;5.77;79.93
62152;BME280;48139;47.474;19.034;2024-01-30T14:26:36;102644.59;;;5.65;80.27
62152;BME280;48139;47.474;19.034;2024-01-30T14:29:39;102646.31;;;5.61;81.61
62152;BME280;48139;47.474;19.034;2024-01-30T14:32:43;102641.97;;;5.60;79.12
62152;BME280;48139;47.474;19.034;2024-01-30T14:35:48;102643.56;;;5.48;79.79
62152;BME280;48139;47.474;19.034;2024-01-30T14:38:50;102650.53;;;5.52;78.11
62152;BME280;48139;47.474;19.034;2024-01-30T14:41:54;102645.38;;;5.56;78.43
62152;BME280;48139;47.474;19.034;2024-01-30T14:44:57;102635.81;;;5.52;80.00
62152;BME280;48139;47.474;19.034;2024-01-30T14:47:59;102634.94;;;5.52;81.32
62152;BME280;48139;47.474;19.034;2024-01-30T14:51:02;102639.31;;;5.54;82.14
62152;BME280;48139;47.474;19.034;2024-01-30T14:54:05;102640.94;;;5.43;81.22
62152;BME280;48139;47.474;19.034;2024-01-30T14:57:08;102634.75;;;5.35;84.77
62152;BME280;48139;47.474;19.034;2024-01-30T15:00:12;102634.81;;;5.41;84.43
62152;BME280;48139;47.474;19.034;2024-01-30T15:03:16;102636.50;;;5.35;85.90
62152;BME280;48139;47.474;19.034;2024-01-30T15:06:19;102639.97;;;5.35;84.10
62152;BME280;48139;47.474;19.034;2024-01-30T15:09:21;102635.56;;;5.31;85.71
62152;BME280;48139;47.474;19.034;2024-01-30T15:12:27;102631.09;;;5.19;86.59
62152;BME280;48139;47.474;19.034;2024-01-30T15:15:29;102627.63;;;5.16;87.18
62152;BME280;48139;47.474;19.034;2024-01-30T15:18:33;102634.38;;;5.03;89.57
62152;BME280;48139;47.474;19.034;2024-01-30T15:21:36;102636.13;;;5.03;89.19
62152;BME280;48139;47.474;19.034;2024-01-30T15:24:39;102634.38;;;5.02;90.11
62152;BME280;48139;47.474;19.034;2024-01-30T15:27:41;102635.88;;;4.84;92.50
62152;BME280;48139;47.474;19.034;2024-01-30T15:30:44;102631.53;;;4.83;93.50
62152;BME280;48139;47.474;19.034;2024-01-30T15:33:47;102634.03;;;4.74;94.24
62152;BME280;48139;47.474;19.034;2024-01-30T15:36:50;102634.81;;;4.67;96.96
62152;BME280;48139;47.474;19.034;2024-01-30T15:39:52;102636.47;;;4.64;97.36
62152;BME280;48139;47.474;19.034;2024-01-30T15:42:55;102637.38;;;4.66;97.80
62152;BME280;48139;47.474;19.034;2024-01-30T15:46:01;102638.88;;;4.52;99.65
62152;BME280;48139;47.474;19.034;2024-01-30T15:49:03;102636.25;;;4.47;100.00
62152;BME280;48139;47.474;19.034;2024-01-30T15:52:06;102633.16;;;4.15;100.00
62152;BME280;48139;47.474;19.034;2024-01-30T15:55:15;102638.31;;;4.12;100.00
62152;BME280;48139;47.474;19.034;2024-01-30T15:58:18;102638.66;;;3.82;100.00
62152;BME280;48139;47.474;19.034;2024-01-30T16:01:21;102643.41;;;3.58;100.00
62152;BME280;48139;47.474;19.034;2024-01-30T16:04:24;102640.44;;;3.37;100.00
62152;BME280;48139;47.474;19.034;2024-01-30T16:07:27;102644.44;;;3.21;100.00
62152;BME280;48139;47.474;19.034;2024-01-30T16:10:30;102650.28;;;3.11;100.00
62152;BME280;48139;47.474;19.034;2024-01-30T16:13:33;102643.19;;;3.02;100.00
62152;BME280;48139;47.474;19.034;2024-01-30T16:16:38;102641.28;;;2.92;100.00
62152;BME280;48139;47.474;19.034;2024-01-30T16:19:41;102646.28;;;2.84;100.00
62152;BME280;48139;47.474;19.034;2024-01-30T16:22:48;102641.75;;;2.74;100.00
62152;BME280;48139;47.474;19.034;2024-01-30T16:25:57;102648.50;;;2.68;100.00
62152;BME280;48139;47.474;19.034;2024-01-30T16:29:00;102643.09;;;2.57;100.00
62152;BME280;48139;47.474;19.034;2024-01-30T16:32:03;102645.53;;;2.50;100.00
62152;BME280;48139;47.474;19.034;2024-01-30T16:35:05;102641.97;;;2.46;100.00
62152;BME280;48139;47.474;19.034;2024-01-30T16:38:08;102641.59;;;2.29;100.00
62152;BME280;48139;47.474;19.034;2024-01-30T16:41:11;102629.31;;;2.21;100.00
62152;BME280;48139;47.474;19.034;2024-01-30T16:44:13;102635.47;;;2.26;100.00
62152;BME280;48139;47.474;19.034;2024-01-30T16:47:17;102629.03;;;2.09;100.00
62152;BME280;48139;47.474;19.034;2024-01-30T16:50:21;102636.72;;;2.06;100.00
62152;BME280;48139;47.474;19.034;2024-01-30T16:53:23;102641.59;;;1.95;100.00
62152;BME280;48139;47.474;19.034;2024-01-30T16:56:26;102642.19;;;1.83;100.00
